sensor_id;sensor_type;location;lat;lon;timestamp;P1;durP1;ratioP1;P2;durP2;ratioP2
64210;SDS011;50528;48.514;14.394;2023-02-28T00:00:04;11.30;;;7.80;;
64210;SDS011;50528;48.514;14.394;2023-02-28T00:01:08;12.80;;;7.70;;
64210;SDS011;50528;48.514;14.394;2023-02-28T00:01:44;10.50;;;7.60;;
64210;SDS011;50528;48.514;14.394;2023-02-28T00:02:18;11.70;;;8.30;;
64210;SDS011;50528;48.514;14.394;2023-02-28T00:02:52;11.10;;;8.30;;
64210;SDS011;50528;48.514;14.394;2023-02-28T00:03:27;12.80;;;8.60;;
64210;SDS011;50528;48.514;14.394;2023-02-28T00:04:01;11.30;;;8.40;;
64210;SDS011;50528;48.514;14.394;2023-02-28T00:04:36;11.70;;;8.00;;
64210;SDS011;50528;48.514;14.394;2023-02-28T00:05:11;13.00;;;9.00;;
64210;SDS011;50528;48.514;14.394;2023-02-28T00:05:47;12.40;;;8.70;;
64210;SDS011;50528;48.514;14.394;2023-02-28T00:06:21;11.50;;;8.20;;
64210;SDS011;50528;48.514;14.394;2023-02-28T00:06:55;12.10;;;9.10;;
64210;SDS011;50528;48.514;14.394;2023-02-28T00:07:29;12.30;;;8.80;;
64210;SDS011;50528;48.514;14.394;2023-02-28T00:08:03;13.50;;;9.00;;
64210;SDS011;50528;48.514;14.394;2023-02-28T00:08:38;11.40;;;8.30;;
64210;SDS011;50528;48.514;14.394;2023-02-28T00:09:12;12.90;;;9.20;;
64210;SDS011;50528;48.514;14.394;2023-02-28T00:09:46;11.90;;;8.60;;
64210;SDS011;50528;48.514;14.394;2023-02-28T00:10:22;11.60;;;8.40;;
64210;SDS011;50528;48.514;14.394;2023-02-28T00:11:01;12.20;;;8.60;;
64210;SDS011;50528;48.514;14.394;2023-02-28T00:11:36;13.20;;;8.90;;
64210;SDS011;50528;48.514;14.394;2023-02-28T00:12:11;12.70;;;8.50;;
64210;SDS011;50528;48.514;14.394;2023-02-28T00:12:50;12.00;;;8.90;;
64210;SDS011;50528;48.514;14.394;2023-02-28T00:13:24;11.70;;;8.60;;
64210;SDS011;50528;48.514;14.394;2023-02-28T00:13:59;12.20;;;8.30;;
64210;SDS011;50528;48.514;14.394;2023-02-28T00:14:33;11.20;;;8.50;;
64210;SDS011;50528;48.514;14.394;2023-02-28T00:15:08;12.60;;;8.70;;
64210;SDS011;50528;48.514;14.394;2023-02-28T00:15:43;10.90;;;8.50;;
64210;SDS011;50528;48.514;14.394;2023-02-28T00:16:20;11.40;;;8.10;;
64210;SDS011;50528;48.514;14.394;2023-02-28T00:16:55;12.10;;;8.40;;
64210;SDS011;50528;48.514;14.394;2023-02-28T00:17:29;11.20;;;8.00;;
64210;SDS011;50528;48.514;14.394;2023-02-28T00:18:03;11.60;;;8.30;;
64210;SDS011;50528;48.514;14.394;2023-02-28T00:18:39;12.60;;;8.10;;
64210;SDS011;50528;48.514;14.394;2023-02-28T00:19:14;11.90;;;8.80;;
64210;SDS011;50528;48.514;14.394;2023-02-28T00:19:49;11.70;;;8.40;;
64210;SDS011;50528;48.514;14.394;2023-02-28T00:20:23;10.60;;;8.30;;
64210;SDS011;50528;48.514;14.394;2023-02-28T00:20:58;12.20;;;8.70;;
64210;SDS011;50528;48.514;14.394;2023-02-28T00:21:34;10.80;;;8.20;;
64210;SDS011;50528;48.514;14.394;2023-02-28T00:22:09;12.40;;;9.30;;
64210;SDS011;50528;48.514;14.394;2023-02-28T00:22:44;10.80;;;8.00;;
64210;SDS011;50528;48.514;14.394;2023-02-28T00:23:21;11.90;;;8.50;;
64210;SDS011;50528;48.514;14.394;2023-02-28T00:23:55;10.60;;;7.40;;
64210;SDS011;50528;48.514;14.394;2023-02-28T00:24:29;12.00;;;8.70;;
64210;SDS011;50528;48.514;14.394;2023-02-28T00:25:04;11.10;;;7.80;;
64210;SDS011;50528;48.514;14.394;2023-02-28T00:25:40;13.10;;;8.60;;
64210;SDS011;50528;48.514;14.394;2023-02-28T00:26:14;11.50;;;8.10;;
64210;SDS011;50528;48.514;14.394;2023-02-28T00:26:50;11.20;;;8.00;;
64210;SDS011;50528;48.514;14.394;2023-02-28T00:27:24;12.70;;;8.40;;
64210;SDS011;50528;48.514;14.394;2023-02-28T00:27:58;10.70;;;8.20;;
64210;SDS011;50528;48.514;14.394;2023-02-28T00:28:32;11.00;;;8.10;;
64210;SDS011;50528;48.514;14.394;2023-02-28T00:29:07;12.10;;;8.00;;
64210;SDS011;50528;48.514;14.394;2023-02-28T00:29:42;11.50;;;8.10;;
64210;SDS011;50528;48.514;14.394;2023-02-28T00:30:20;10.80;;;7.60;;
64210;SDS011;50528;48.514;14.394;2023-02-28T00:30:55;12.10;;;7.70;;
64210;SDS011;50528;48.514;14.394;2023-02-28T00:31:31;12.80;;;8.20;;
64210;SDS011;50528;48.514;14.394;2023-02-28T00:32:05;12.00;;;8.40;;
64210;SDS011;50528;48.514;14.394;2023-02-28T00:32:40;12.70;;;8.40;;
64210;SDS011;50528;48.514;14.394;2023-02-28T00:33:15;11.60;;;8.40;;
64210;SDS011;50528;48.514;14.394;2023-02-28T00:33:49;11.60;;;8.00;;
64210;SDS011;50528;48.514;14.394;2023-02-28T00:34:27;11.00;;;7.90;;
64210;SDS011;50528;48.514;14.394;2023-02-28T00:35:01;12.90;;;8.80;;
64210;SDS011;50528;48.514;14.394;2023-02-28T00:35:37;12.80;;;8.40;;
64210;SDS011;50528;48.514;14.394;2023-02-28T00:36:14;12.30;;;8.30;;
64210;SDS011;50528;48.514;14.394;2023-02-28T00:36:49;10.70;;;8.60;;
64210;SDS011;50528;48.514;14.394;2023-02-28T00:37:23;14.40;;;8.60;;
64210;SDS011;50528;48.514;14.394;2023-02-28T00:37:57;13.20;;;9.40;;
64210;SDS011;50528;48.514;14.394;2023-02-28T00:38:33;13.10;;;9.00;;
64210;SDS011;50528;48.514;14.394;2023-02-28T00:39:07;14.10;;;9.30;;
64210;SDS011;50528;48.514;14.394;2023-02-28T00:39:41;11.40;;;8.40;;
64210;SDS011;50528;48.514;14.394;2023-02-28T00:40:15;13.60;;;9.10;;
64210;SDS011;50528;48.514;14.394;2023-02-28T00:40:50;11.80;;;8.70;;
64210;SDS011;50528;48.514;14.394;2023-02-28T00:41:25;12.30;;;8.40;;
64210;SDS011;50528;48.514;14.394;2023-02-28T00:42:00;11.70;;;8.80;;
64210;SDS011;50528;48.514;14.394;2023-02-28T00:42:34;11.90;;;8.10;;
64210;SDS011;50528;48.514;14.394;2023-02-28T00:43:09;13.00;;;9.10;;
64210;SDS011;50528;48.514;14.394;2023-02-28T00:43:43;12.20;;;8.80;;
64210;SDS011;50528;48.514;14.394;2023-02-28T00:44:17;10.70;;;7.40;;
64210;SDS011;50528;48.514;14.394;2023-02-28T00:44:52;12.30;;;8.50;;
64210;SDS011;50528;48.514;14.394;2023-02-28T00:46:01;12.00;;;7.90;;
64210;SDS011;50528;48.514;14.394;2023-02-28T00:46:39;10.40;;;7.10;;
64210;SDS011;50528;48.514;14.394;2023-02-28T00:47:13;11.00;;;8.40;;
64210;SDS011;50528;48.514;14.394;2023-02-28T00:47:47;11.90;;;8.60;;
64210;SDS011;50528;48.514;14.394;2023-02-28T00:48:23;12.00;;;7.90;;
64210;SDS011;50528;48.514;14.394;2023-02-28T00:48:57;13.00;;;8.50;;
64210;SDS011;50528;48.514;14.394;2023-02-28T00:49:32;12.30;;;8.30;;
64210;SDS011;50528;48.514;14.394;2023-02-28T00:50:08;11.00;;;7.80;;
64210;SDS011;50528;48.514;14.394;2023-02-28T00:50:42;13.90;;;8.60;;
64210;SDS011;50528;48.514;14.394;2023-02-28T00:51:19;14.70;;;8.80;;
64210;SDS011;50528;48.514;14.394;2023-02-28T00:51:53;13.40;;;8.70;;
64210;SDS011;50528;48.514;14.394;2023-02-28T00:52:29;12.80;;;9.40;;
64210;SDS011;50528;48.514;14.394;2023-02-28T00:53:03;10.60;;;7.90;;
64210;SDS011;50528;48.514;14.394;2023-02-28T00:53:37;13.90;;;8.20;;
64210;SDS011;50528;48.514;14.394;2023-02-28T00:54:12;12.50;;;8.70;;
64210;SDS011;50528;48.514;14.394;2023-02-28T00:54:50;12.00;;;8.50;;
64210;SDS011;50528;48.514;14.394;2023-02-28T00:55:24;12.30;;;8.80;;
64210;SDS011;50528;48.514;14.394;2023-02-28T00:55:58;12.20;;;8.20;;
64210;SDS011;50528;48.514;14.394;2023-02-28T00:56:33;12.40;;;9.20;;
64210;SDS011;50528;48.514;14.394;2023-02-28T00:57:07;12.60;;;8.60;;
64210;SDS011;50528;48.514;14.394;2023-02-28T00:57:41;13.70;;;9.20;;
64210;SDS011;50528;48.514;14.394;2023-02-28T00:58:15;11.90;;;8.60;;
64210;SDS011;50528;48.514;14.394;2023-02-28T00:58:50;12.90;;;8.80;;
64210;SDS011;50528;48.514;14.394;2023-02-28T00:59:25;12.90;;;8.70;;
64210;SDS011;50528;48.514;14.394;2023-02-28T01:00:08;10.70;;;8.00;;
64210;SDS011;50528;48.514;14.394;2023-02-28T01:00:44;12.50;;;8.80;;
64210;SDS011;50528;48.514;14.394;2023-02-28T01:01:25;13.20;;;8.40;;
64210;SDS011;50528;48.514;14.394;2023-02-28T01:02:03;11.00;;;8.00;;
64210;SDS011;50528;48.514;14.394;2023-02-28T01:02:40;13.00;;;9.20;;
64210;SDS011;50528;48.514;14.394;2023-02-28T01:03:20;13.00;;;8.90;;
64210;SDS011;50528;48.514;14.394;2023-02-28T01:03:57;11.90;;;8.30;;
64210;SDS011;50528;48.514;14.394;2023-02-28T01:04:33;12.00;;;8.50;;
64210;SDS011;50528;48.514;14.394;2023-02-28T01:05:09;11.40;;;7.90;;
64210;SDS011;50528;48.514;14.394;2023-02-28T01:05:46;12.20;;;8.60;;
64210;SDS011;50528;48.514;14.394;2023-02-28T01:06:23;13.10;;;8.40;;
64210;SDS011;50528;48.514;14.394;2023-02-28T01:06:59;11.30;;;7.70;;
64210;SDS011;50528;48.514;14.394;2023-02-28T01:07:35;14.10;;;8.30;;
64210;SDS011;50528;48.514;14.394;2023-02-28T01:08:09;14.20;;;9.40;;
64210;SDS011;50528;48.514;14.394;2023-02-28T01:08:43;13.30;;;8.70;;
64210;SDS011;50528;48.514;14.394;2023-02-28T01:09:20;11.70;;;7.80;;
64210;SDS011;50528;48.514;14.394;2023-02-28T01:09:57;12.90;;;8.00;;
64210;SDS011;50528;48.514;14.394;2023-02-28T01:10:34;12.70;;;9.00;;
64210;SDS011;50528;48.514;14.394;2023-02-28T01:11:46;13.50;;;9.30;;
64210;SDS011;50528;48.514;14.394;2023-02-28T01:13:16;11.30;;;6.40;;
64210;SDS011;50528;48.514;14.394;2023-02-28T01:14:50;13.60;;;7.90;;
64210;SDS011;50528;48.514;14.394;2023-02-28T01:16:21;13.00;;;7.90;;
64210;SDS011;50528;48.514;14.394;2023-02-28T01:17:54;10.20;;;6.20;;
64210;SDS011;50528;48.514;14.394;2023-02-28T01:19:24;10.40;;;6.40;;
64210;SDS011;50528;48.514;14.394;2023-02-28T01:20:50;14.90;;;8.20;;
64210;SDS011;50528;48.514;14.394;2023-02-28T01:22:26;12.50;;;7.60;;
64210;SDS011;50528;48.514;14.394;2023-02-28T01:23:55;11.70;;;7.00;;
64210;SDS011;50528;48.514;14.394;2023-02-28T01:25:12;13.20;;;7.80;;
64210;SDS011;50528;48.514;14.394;2023-02-28T01:25:47;13.00;;;8.10;;
64210;SDS011;50528;48.514;14.394;2023-02-28T01:26:23;12.40;;;8.50;;
64210;SDS011;50528;48.514;14.394;2023-02-28T01:26:57;13.90;;;8.80;;
64210;SDS011;50528;48.514;14.394;2023-02-28T01:27:31;12.10;;;8.10;;
64210;SDS011;50528;48.514;14.394;2023-02-28T01:28:05;12.20;;;8.80;;
64210;SDS011;50528;48.514;14.394;2023-02-28T01:28:40;13.60;;;8.90;;
64210;SDS011;50528;48.514;14.394;2023-02-28T01:29:14;12.40;;;9.30;;
64210;SDS011;50528;48.514;14.394;2023-02-28T01:29:50;12.70;;;9.00;;
64210;SDS011;50528;48.514;14.394;2023-02-28T01:30:24;14.20;;;9.30;;
64210;SDS011;50528;48.514;14.394;2023-02-28T01:31:00;13.40;;;9.20;;
64210;SDS011;50528;48.514;14.394;2023-02-28T01:31:34;13.70;;;9.50;;
64210;SDS011;50528;48.514;14.394;2023-02-28T01:32:09;13.70;;;9.50;;
64210;SDS011;50528;48.514;14.394;2023-02-28T01:32:43;14.70;;;10.00;;
64210;SDS011;50528;48.514;14.394;2023-02-28T01:33:17;13.00;;;9.30;;
64210;SDS011;50528;48.514;14.394;2023-02-28T01:33:51;14.00;;;9.60;;
64210;SDS011;50528;48.514;14.394;2023-02-28T01:34:32;13.40;;;9.30;;
64210;SDS011;50528;48.514;14.394;2023-02-28T01:35:10;14.50;;;9.60;;
64210;SDS011;50528;48.514;14.394;2023-02-28T01:35:45;13.90;;;9.80;;
64210;SDS011;50528;48.514;14.394;2023-02-28T01:36:21;13.80;;;9.60;;
64210;SDS011;50528;48.514;14.394;2023-02-28T01:36:57;14.30;;;9.30;;
64210;SDS011;50528;48.514;14.394;2023-02-28T01:37:32;14.60;;;8.80;;
64210;SDS011;50528;48.514;14.394;2023-02-28T01:38:06;14.80;;;9.80;;
64210;SDS011;50528;48.514;14.394;2023-02-28T01:38:54;11.70;;;7.60;;
64210;SDS011;50528;48.514;14.394;2023-02-28T01:39:28;13.00;;;8.40;;
64210;SDS011;50528;48.514;14.394;2023-02-28T01:40:03;13.80;;;8.90;;
64210;SDS011;50528;48.514;14.394;2023-02-28T01:40:38;14.90;;;9.80;;
64210;SDS011;50528;48.514;14.394;2023-02-28T01:41:17;13.90;;;9.50;;
64210;SDS011;50528;48.514;14.394;2023-02-28T01:41:57;13.00;;;9.00;;
64210;SDS011;50528;48.514;14.394;2023-02-28T01:42:32;13.00;;;9.40;;
64210;SDS011;50528;48.514;14.394;2023-02-28T01:45:30;11.00;;;7.50;;
64210;SDS011;50528;48.514;14.394;2023-02-28T01:46:05;13.70;;;9.50;;
64210;SDS011;50528;48.514;14.394;2023-02-28T01:46:39;12.20;;;8.90;;
64210;SDS011;50528;48.514;14.394;2023-02-28T01:47:13;15.10;;;9.70;;
64210;SDS011;50528;48.514;14.394;2023-02-28T01:47:50;14.40;;;9.20;;
64210;SDS011;50528;48.514;14.394;2023-02-28T01:48:26;13.60;;;9.00;;
64210;SDS011;50528;48.514;14.394;2023-02-28T01:49:49;13.00;;;8.10;;
64210;SDS011;50528;48.514;14.394;2023-02-28T01:50:26;15.50;;;9.30;;
64210;SDS011;50528;48.514;14.394;2023-02-28T01:51:05;13.50;;;9.40;;
64210;SDS011;50528;48.514;14.394;2023-02-28T01:51:46;12.30;;;8.70;;
64210;SDS011;50528;48.514;14.394;2023-02-28T01:52:28;13.50;;;9.10;;
64210;SDS011;50528;48.514;14.394;2023-02-28T01:53:04;15.20;;;9.10;;
64210;SDS011;50528;48.514;14.394;2023-02-28T01:53:47;15.60;;;9.50;;
64210;SDS011;50528;48.514;14.394;2023-02-28T01:54:28;14.50;;;8.90;;
64210;SDS011;50528;48.514;14.394;2023-02-28T01:55:05;14.20;;;9.00;;
64210;SDS011;50528;48.514;14.394;2023-02-28T01:55:41;14.70;;;9.90;;
64210;SDS011;50528;48.514;14.394;2023-02-28T01:56:22;12.20;;;9.00;;
64210;SDS011;50528;48.514;14.394;2023-02-28T01:57:01;12.70;;;9.00;;
64210;SDS011;50528;48.514;14.394;2023-02-28T01:57:42;14.30;;;9.70;;
64210;SDS011;50528;48.514;14.394;2023-02-28T01:58:21;13.30;;;9.10;;
64210;SDS011;50528;48.514;14.394;2023-02-28T01:58:55;14.30;;;9.20;;
64210;SDS011;50528;48.514;14.394;2023-02-28T01:59:33;13.60;;;9.50;;
64210;SDS011;50528;48.514;14.394;2023-02-28T02:00:15;13.90;;;8.70;;
64210;SDS011;50528;48.514;14.394;2023-02-28T02:00:52;12.20;;;8.00;;
64210;SDS011;50528;48.514;14.394;2023-02-28T02:01:27;14.30;;;9.20;;
64210;SDS011;50528;48.514;14.394;2023-02-28T02:02:03;13.60;;;9.10;;
64210;SDS011;50528;48.514;14.394;2023-02-28T02:02:38;13.00;;;9.20;;
64210;SDS011;50528;48.514;14.394;2023-02-28T02:03:20;15.50;;;9.80;;
64210;SDS011;50528;48.514;14.394;2023-02-28T02:03:55;13.10;;;9.40;;
64210;SDS011;50528;48.514;14.394;2023-02-28T02:04:34;14.20;;;9.60;;
64210;SDS011;50528;48.514;14.394;2023-02-28T02:05:18;12.80;;;9.00;;
64210;SDS011;50528;48.514;14.394;2023-02-28T02:05:54;14.30;;;9.60;;
64210;SDS011;50528;48.514;14.394;2023-02-28T02:06:29;15.10;;;9.90;;
64210;SDS011;50528;48.514;14.394;2023-02-28T02:07:10;13.30;;;9.20;;
64210;SDS011;50528;48.514;14.394;2023-02-28T02:07:54;13.40;;;9.50;;
64210;SDS011;50528;48.514;14.394;2023-02-28T02:08:30;15.00;;;9.70;;
64210;SDS011;50528;48.514;14.394;2023-02-28T02:09:04;14.80;;;9.60;;
64210;SDS011;50528;48.514;14.394;2023-02-28T02:09:38;15.00;;;10.20;;
64210;SDS011;50528;48.514;14.394;2023-02-28T02:11:33;15.00;;;9.90;;
64210;SDS011;50528;48.514;14.394;2023-02-28T02:12:15;13.90;;;9.40;;
64210;SDS011;50528;48.514;14.394;2023-02-28T02:14:02;12.70;;;8.90;;
64210;SDS011;50528;48.514;14.394;2023-02-28T02:15:00;13.70;;;9.10;;
64210;SDS011;50528;48.514;14.394;2023-02-28T02:16:10;14.50;;;8.80;;
64210;SDS011;50528;48.514;14.394;2023-02-28T02:17:48;12.50;;;8.90;;
64210;SDS011;50528;48.514;14.394;2023-02-28T02:21:27;13.40;;;8.40;;
64210;SDS011;50528;48.514;14.394;2023-02-28T02:23:14;13.40;;;8.20;;
64210;SDS011;50528;48.514;14.394;2023-02-28T02:24:24;14.70;;;9.50;;
64210;SDS011;50528;48.514;14.394;2023-02-28T02:25:54;14.20;;;9.10;;
64210;SDS011;50528;48.514;14.394;2023-02-28T02:26:50;14.60;;;9.40;;
64210;SDS011;50528;48.514;14.394;2023-02-28T02:27:39;15.70;;;9.80;;
64210;SDS011;50528;48.514;14.394;2023-02-28T02:28:41;14.40;;;9.60;;
64210;SDS011;50528;48.514;14.394;2023-02-28T02:34:08;14.80;;;8.70;;
64210;SDS011;50528;48.514;14.394;2023-02-28T02:36:06;14.80;;;9.70;;
64210;SDS011;50528;48.514;14.394;2023-02-28T02:38:56;17.60;;;9.60;;
64210;SDS011;50528;48.514;14.394;2023-02-28T02:40:14;14.90;;;9.30;;
64210;SDS011;50528;48.514;14.394;2023-02-28T02:40:57;13.30;;;9.20;;
64210;SDS011;50528;48.514;14.394;2023-02-28T02:42:45;15.30;;;10.00;;
64210;SDS011;50528;48.514;14.394;2023-02-28T02:43:38;15.10;;;9.10;;
64210;SDS011;50528;48.514;14.394;2023-02-28T02:44:40;15.50;;;9.60;;
64210;SDS011;50528;48.514;14.394;2023-02-28T02:45:26;14.30;;;10.00;;
64210;SDS011;50528;48.514;14.394;2023-02-28T02:46:14;17.20;;;9.70;;
64210;SDS011;50528;48.514;14.394;2023-02-28T02:47:06;16.80;;;10.30;;
64210;SDS011;50528;48.514;14.394;2023-02-28T02:47:43;14.20;;;9.90;;
64210;SDS011;50528;48.514;14.394;2023-02-28T02:48:19;16.20;;;10.40;;
64210;SDS011;50528;48.514;14.394;2023-02-28T02:48:59;16.50;;;10.30;;
64210;SDS011;50528;48.514;14.394;2023-02-28T02:51:20;17.80;;;10.20;;
64210;SDS011;50528;48.514;14.394;2023-02-28T02:52:00;15.60;;;10.00;;
64210;SDS011;50528;48.514;14.394;2023-02-28T02:52:39;18.70;;;11.00;;
64210;SDS011;50528;48.514;14.394;2023-02-28T02:53:23;18.10;;;10.90;;
64210;SDS011;50528;48.514;14.394;2023-02-28T02:54:08;16.80;;;11.10;;
64210;SDS011;50528;48.514;14.394;2023-02-28T02:54:52;18.50;;;10.90;;
64210;SDS011;50528;48.514;14.394;2023-02-28T02:55:30;15.90;;;10.70;;
64210;SDS011;50528;48.514;14.394;2023-02-28T02:56:08;15.20;;;10.40;;
64210;SDS011;50528;48.514;14.394;2023-02-28T02:56:44;15.40;;;10.70;;
64210;SDS011;50528;48.514;14.394;2023-02-28T02:57:22;17.80;;;11.00;;
64210;SDS011;50528;48.514;14.394;2023-02-28T02:58:04;16.40;;;10.60;;
64210;SDS011;50528;48.514;14.394;2023-02-28T02:59:18;16.50;;;10.30;;
64210;SDS011;50528;48.514;14.394;2023-02-28T02:59:56;15.70;;;9.80;;
64210;SDS011;50528;48.514;14.394;2023-02-28T03:00:32;15.20;;;10.40;;
64210;SDS011;50528;48.514;14.394;2023-02-28T03:01:12;16.00;;;10.90;;
64210;SDS011;50528;48.514;14.394;2023-02-28T03:02:02;15.00;;;10.50;;
64210;SDS011;50528;48.514;14.394;2023-02-28T03:02:41;17.40;;;10.70;;
64210;SDS011;50528;48.514;14.394;2023-02-28T03:03:18;16.90;;;10.90;;
64210;SDS011;50528;48.514;14.394;2023-02-28T03:04:09;14.60;;;10.40;;
64210;SDS011;50528;48.514;14.394;2023-02-28T03:04:48;16.90;;;10.80;;
64210;SDS011;50528;48.514;14.394;2023-02-28T03:05:28;13.70;;;9.40;;
64210;SDS011;50528;48.514;14.394;2023-02-28T03:06:07;14.70;;;10.30;;
64210;SDS011;50528;48.514;14.394;2023-02-28T03:06:41;15.50;;;11.00;;
64210;SDS011;50528;48.514;14.394;2023-02-28T03:07:15;17.40;;;11.50;;
64210;SDS011;50528;48.514;14.394;2023-02-28T03:07:49;16.40;;;10.70;;
64210;SDS011;50528;48.514;14.394;2023-02-28T03:08:24;15.60;;;10.20;;
64210;SDS011;50528;48.514;14.394;2023-02-28T03:09:01;13.70;;;9.50;;
64210;SDS011;50528;48.514;14.394;2023-02-28T03:09:36;15.60;;;11.00;;
64210;SDS011;50528;48.514;14.394;2023-02-28T03:10:32;15.20;;;10.90;;
64210;SDS011;50528;48.514;14.394;2023-02-28T03:11:10;17.90;;;11.70;;
64210;SDS011;50528;48.514;14.394;2023-02-28T03:11:50;16.80;;;11.20;;
64210;SDS011;50528;48.514;14.394;2023-02-28T03:12:33;15.40;;;10.80;;
64210;SDS011;50528;48.514;14.394;2023-02-28T03:15:31;14.10;;;9.90;;
64210;SDS011;50528;48.514;14.394;2023-02-28T03:18:01;14.90;;;10.10;;
64210;SDS011;50528;48.514;14.394;2023-02-28T03:23:21;14.20;;;9.90;;
64210;SDS011;50528;48.514;14.394;2023-02-28T03:24:10;14.30;;;9.20;;
64210;SDS011;50528;48.514;14.394;2023-02-28T03:24:52;16.00;;;9.50;;
64210;SDS011;50528;48.514;14.394;2023-02-28T03:25:31;15.10;;;10.50;;
64210;SDS011;50528;48.514;14.394;2023-02-28T03:26:17;15.50;;;10.90;;
64210;SDS011;50528;48.514;14.394;2023-02-28T03:26:57;16.10;;;10.30;;
64210;SDS011;50528;48.514;14.394;2023-02-28T03:28:42;19.40;;;10.70;;
64210;SDS011;50528;48.514;14.394;2023-02-28T03:29:24;15.90;;;10.60;;
64210;SDS011;50528;48.514;14.394;2023-02-28T03:31:28;17.40;;;10.30;;
64210;SDS011;50528;48.514;14.394;2023-02-28T03:32:24;17.00;;;10.60;;
64210;SDS011;50528;48.514;14.394;2023-02-28T03:33:20;17.70;;;10.40;;
64210;SDS011;50528;48.514;14.394;2023-02-28T03:34:13;15.70;;;9.50;;
64210;SDS011;50528;48.514;14.394;2023-02-28T03:35:00;15.60;;;10.00;;
64210;SDS011;50528;48.514;14.394;2023-02-28T03:35:43;16.20;;;10.60;;
64210;SDS011;50528;48.514;14.394;2023-02-28T03:36:25;17.10;;;10.50;;
64210;SDS011;50528;48.514;14.394;2023-02-28T03:37:11;15.90;;;10.70;;
64210;SDS011;50528;48.514;14.394;2023-02-28T03:37:50;15.90;;;10.70;;
64210;SDS011;50528;48.514;14.394;2023-02-28T03:39:06;14.70;;;10.50;;
64210;SDS011;50528;48.514;14.394;2023-02-28T03:40:25;14.90;;;9.40;;
64210;SDS011;50528;48.514;14.394;2023-02-28T03:41:06;17.20;;;10.80;;
64210;SDS011;50528;48.514;14.394;2023-02-28T03:41:43;16.00;;;10.70;;
64210;SDS011;50528;48.514;14.394;2023-02-28T03:42:27;15.10;;;10.90;;
64210;SDS011;50528;48.514;14.394;2023-02-28T03:43:04;15.80;;;10.70;;
64210;SDS011;50528;48.514;14.394;2023-02-28T03:44:27;15.10;;;10.30;;
64210;SDS011;50528;48.514;14.394;2023-02-28T03:44:59;15.30;;;9.80;;
64210;SDS011;50528;48.514;14.394;2023-02-28T03:45:37;19.90;;;10.90;;
64210;SDS011;50528;48.514;14.394;2023-02-28T03:46:16;15.60;;;10.60;;
64210;SDS011;50528;48.514;14.394;2023-02-28T03:46:58;17.00;;;10.90;;
64210;SDS011;50528;48.514;14.394;2023-02-28T03:47:54;16.80;;;11.20;;
64210;SDS011;50528;48.514;14.394;2023-02-28T03:48:34;16.30;;;10.50;;
64210;SDS011;50528;48.514;14.394;2023-02-28T03:49:25;16.00;;;10.20;;
64210;SDS011;50528;48.514;14.394;2023-02-28T03:50:06;15.60;;;10.70;;
64210;SDS011;50528;48.514;14.394;2023-02-28T03:50:44;17.80;;;11.00;;
64210;SDS011;50528;48.514;14.394;2023-02-28T03:51:22;17.00;;;11.30;;
64210;SDS011;50528;48.514;14.394;2023-02-28T03:52:01;17.20;;;11.20;;
64210;SDS011;50528;48.514;14.394;2023-02-28T03:52:41;16.80;;;11.40;;
64210;SDS011;50528;48.514;14.394;2023-02-28T03:53:37;15.70;;;11.10;;
64210;SDS011;50528;48.514;14.394;2023-02-28T03:54:16;15.70;;;10.20;;
64210;SDS011;50528;48.514;14.394;2023-02-28T03:54:56;15.40;;;11.00;;
64210;SDS011;50528;48.514;14.394;2023-02-28T03:55:42;16.90;;;11.50;;
64210;SDS011;50528;48.514;14.394;2023-02-28T03:56:34;15.70;;;10.80;;
64210;SDS011;50528;48.514;14.394;2023-02-28T03:58:31;17.30;;;9.90;;
64210;SDS011;50528;48.514;14.394;2023-02-28T03:59:56;15.90;;;10.50;;
64210;SDS011;50528;48.514;14.394;2023-02-28T04:00:19;15.60;;;9.80;;
64210;SDS011;50528;48.514;14.394;2023-02-28T04:01:07;15.80;;;10.10;;
64210;SDS011;50528;48.514;14.394;2023-02-28T04:01:46;16.10;;;10.20;;
64210;SDS011;50528;48.514;14.394;2023-02-28T04:02:22;18.50;;;10.90;;
64210;SDS011;50528;48.514;14.394;2023-02-28T04:02:56;16.40;;;11.10;;
64210;SDS011;50528;48.514;14.394;2023-02-28T04:03:31;16.50;;;11.00;;
64210;SDS011;50528;48.514;14.394;2023-02-28T04:04:05;14.80;;;10.90;;
64210;SDS011;50528;48.514;14.394;2023-02-28T04:04:40;17.80;;;11.90;;
64210;SDS011;50528;48.514;14.394;2023-02-28T04:05:19;17.10;;;11.00;;
64210;SDS011;50528;48.514;14.394;2023-02-28T04:05:54;17.70;;;11.50;;
64210;SDS011;50528;48.514;14.394;2023-02-28T04:06:31;17.30;;;11.10;;
64210;SDS011;50528;48.514;14.394;2023-02-28T04:07:09;17.00;;;11.00;;
64210;SDS011;50528;48.514;14.394;2023-02-28T04:07:54;16.70;;;11.00;;
64210;SDS011;50528;48.514;14.394;2023-02-28T04:08:38;17.10;;;11.40;;
64210;SDS011;50528;48.514;14.394;2023-02-28T04:09:13;16.50;;;11.30;;
64210;SDS011;50528;48.514;14.394;2023-02-28T04:09:48;15.80;;;11.20;;
64210;SDS011;50528;48.514;14.394;2023-02-28T04:10:22;18.00;;;11.30;;
64210;SDS011;50528;48.514;14.394;2023-02-28T04:11:20;16.80;;;10.80;;
64210;SDS011;50528;48.514;14.394;2023-02-28T04:11:54;15.90;;;10.70;;
64210;SDS011;50528;48.514;14.394;2023-02-28T04:12:31;17.70;;;11.30;;
64210;SDS011;50528;48.514;14.394;2023-02-28T04:13:05;18.20;;;11.70;;
64210;SDS011;50528;48.514;14.394;2023-02-28T04:13:39;18.50;;;11.40;;
64210;SDS011;50528;48.514;14.394;2023-02-28T04:14:14;17.90;;;12.20;;
64210;SDS011;50528;48.514;14.394;2023-02-28T04:14:49;16.60;;;10.90;;
64210;SDS011;50528;48.514;14.394;2023-02-28T04:15:23;15.70;;;11.00;;
64210;SDS011;50528;48.514;14.394;2023-02-28T04:15:58;18.10;;;11.60;;
64210;SDS011;50528;48.514;14.394;2023-02-28T04:16:33;19.10;;;11.90;;
64210;SDS011;50528;48.514;14.394;2023-02-28T04:17:09;18.10;;;12.00;;
64210;SDS011;50528;48.514;14.394;2023-02-28T04:17:43;18.60;;;11.30;;
64210;SDS011;50528;48.514;14.394;2023-02-28T04:18:18;17.10;;;11.30;;
64210;SDS011;50528;48.514;14.394;2023-02-28T04:18:52;17.40;;;11.70;;
64210;SDS011;50528;48.514;14.394;2023-02-28T04:19:26;16.30;;;11.00;;
64210;SDS011;50528;48.514;14.394;2023-02-28T04:20:01;15.90;;;11.80;;
64210;SDS011;50528;48.514;14.394;2023-02-28T04:20:37;18.00;;;11.90;;
64210;SDS011;50528;48.514;14.394;2023-02-28T04:21:11;18.70;;;12.00;;
64210;SDS011;50528;48.514;14.394;2023-02-28T04:21:54;17.50;;;11.20;;
64210;SDS011;50528;48.514;14.394;2023-02-28T04:22:29;17.10;;;11.60;;
64210;SDS011;50528;48.514;14.394;2023-02-28T04:23:03;15.60;;;10.70;;
64210;SDS011;50528;48.514;14.394;2023-02-28T04:23:38;16.10;;;10.90;;
64210;SDS011;50528;48.514;14.394;2023-02-28T04:24:16;17.30;;;11.30;;
64210;SDS011;50528;48.514;14.394;2023-02-28T04:24:58;17.90;;;11.70;;
64210;SDS011;50528;48.514;14.394;2023-02-28T04:25:32;17.10;;;11.30;;
64210;SDS011;50528;48.514;14.394;2023-02-28T04:26:07;18.10;;;11.40;;
64210;SDS011;50528;48.514;14.394;2023-02-28T04:26:46;16.90;;;11.50;;
64210;SDS011;50528;48.514;14.394;2023-02-28T04:27:22;16.70;;;11.00;;
64210;SDS011;50528;48.514;14.394;2023-02-28T04:27:57;17.40;;;11.50;;
64210;SDS011;50528;48.514;14.394;2023-02-28T04:28:33;16.10;;;11.20;;
64210;SDS011;50528;48.514;14.394;2023-02-28T04:29:07;16.70;;;11.20;;
64210;SDS011;50528;48.514;14.394;2023-02-28T04:29:42;16.70;;;11.00;;